sensor_id;sensor_type;location;lat;lon;timestamp;pressure;altitude;pressure_sealevel;temperature;humidity
61757;BME280;57225;61.460;24.060;2023-03-02T00:00:57;100135.91;;;0.53;100.00
61757;BME280;57225;61.460;24.060;2023-03-02T00:03:43;100146.00;;;0.61;100.00
61757;BME280;57225;61.460;24.060;2023-03-02T00:06:28;100133.44;;;0.60;100.00
61757;BME280;57225;61.460;24.060;2023-03-02T00:09:14;100132.16;;;0.58;100.00
61757;BME280;57225;61.460;24.060;2023-03-02T00:11:59;100111.28;;;0.45;100.00
61757;BME280;57225;61.460;24.060;2023-03-02T00:14:43;100118.38;;;0.46;100.00
61757;BME280;57225;61.460;24.060;2023-03-02T00:17:28;100115.03;;;0.40;100.00
61757;BME280;57225;61.460;24.060;2023-03-02T00:20:12;100110.56;;;0.35;100.00
61757;BME280;57225;61.460;24.060;2023-03-02T00:22:56;100112.41;;;0.31;100.00
61757;BME280;57225;61.460;24.060;2023-03-02T00:25:41;100098.59;;;0.19;100.00
61757;BME280;57225;61.460;24.060;2023-03-02T00:28:26;100105.69;;;0.20;100.00
61757;BME280;57225;61.460;24.060;2023-03-02T00:31:10;100100.34;;;0.24;100.00
61757;BME280;57225;61.460;24.060;2023-03-02T00:33:55;100097.03;;;0.18;100.00
61757;BME280;57225;61.460;24.060;2023-03-02T00:36:39;100091.91;;;0.08;100.00
61757;BME280;57225;61.460;24.060;2023-03-02T00:39:24;100083.78;;;-0.01;100.00
61757;BME280;57225;61.460;24.060;2023-03-02T00:42:08;100066.28;;;-0.08;100.00
61757;BME280;57225;61.460;24.060;2023-03-02T00:44:53;100077.06;;;-0.12;100.00
61757;BME280;57225;61.460;24.060;2023-03-02T00:47:37;100079.97;;;-0.08;100.00
61757;BME280;57225;61.460;24.060;2023-03-02T00:50:25;100072.75;;;0.08;100.00
61757;BME280;57225;61.460;24.060;2023-03-02T00:53:09;100078.69;;;0.10;100.00
61757;BME280;57225;61.460;24.060;2023-03-02T00:55:54;100066.94;;;0.10;100.00
61757;BME280;57225;61.460;24.060;2023-03-02T00:58:38;100060.44;;;0.14;100.00
61757;BME280;57225;61.460;24.060;2023-03-02T01:01:22;100057.75;;;0.26;100.00
61757;BME280;57225;61.460;24.060;2023-03-02T01:04:06;100047.94;;;0.25;100.00
61757;BME280;57225;61.460;24.060;2023-03-02T01:06:52;100042.31;;;0.43;100.00
61757;BME280;57225;61.460;24.060;2023-03-02T01:09:37;100040.63;;;0.50;100.00
61757;BME280;57225;61.460;24.060;2023-03-02T01:12:22;100030.69;;;0.58;100.00
61757;BME280;57225;61.460;24.060;2023-03-02T01:15:08;100035.03;;;0.59;100.00
61757;BME280;57225;61.460;24.060;2023-03-02T01:17:53;100027.41;;;0.64;100.00
61757;BME280;57225;61.460;24.060;2023-03-02T01:20:59;100036.25;;;0.82;100.00
61757;BME280;57225;61.460;24.060;2023-03-02T01:23:44;100032.59;;;0.90;100.00
61757;BME280;57225;61.460;24.060;2023-03-02T01:26:29;100022.09;;;0.92;100.00
61757;BME280;57225;61.460;24.060;2023-03-02T01:29:13;100029.84;;;0.90;100.00
61757;BME280;57225;61.460;24.060;2023-03-02T01:31:58;100025.97;;;1.03;100.00
61757;BME280;57225;61.460;24.060;2023-03-02T01:34:42;100018.69;;;1.07;100.00
61757;BME280;57225;61.460;24.060;2023-03-02T01:37:27;100012.25;;;1.03;100.00
61757;BME280;57225;61.460;24.060;2023-03-02T01:40:12;100022.44;;;1.03;100.00
61757;BME280;57225;61.460;24.060;2023-03-02T01:42:59;100009.03;;;0.89;100.00
61757;BME280;57225;61.460;24.060;2023-03-02T01:45:47;100008.59;;;0.87;100.00
61757;BME280;57225;61.460;24.060;2023-03-02T01:51:35;99992.13;;;0.87;100.00
61757;BME280;57225;61.460;24.060;2023-03-02T01:54:21;99994.41;;;0.85;100.00
61757;BME280;57225;61.460;24.060;2023-03-02T01:57:06;99999.91;;;0.85;100.00
61757;BME280;57225;61.460;24.060;2023-03-02T01:59:55;99991.91;;;0.80;100.00
61757;BME280;57225;61.460;24.060;2023-03-02T02:02:42;99989.25;;;0.71;100.00
61757;BME280;57225;61.460;24.060;2023-03-02T02:05:27;99979.63;;;0.65;100.00
61757;BME280;57225;61.460;24.060;2023-03-02T02:08:11;99972.78;;;0.71;100.00
61757;BME280;57225;61.460;24.060;2023-03-02T02:10:57;99975.09;;;0.69;100.00
61757;BME280;57225;61.460;24.060;2023-03-02T02:13:42;99957.38;;;0.67;100.00
61757;BME280;57225;61.460;24.060;2023-03-02T02:16:31;99968.00;;;0.68;100.00
61757;BME280;57225;61.460;24.060;2023-03-02T02:22:39;99955.75;;;0.66;100.00
61757;BME280;57225;61.460;24.060;2023-03-02T02:28:46;99941.94;;;0.62;100.00
61757;BME280;57225;61.460;24.060;2023-03-02T02:31:48;99943.66;;;0.67;100.00
61757;BME280;57225;61.460;24.060;2023-03-02T02:37:38;99943.91;;;0.74;100.00
61757;BME280;57225;61.460;24.060;2023-03-02T02:40:44;99936.00;;;0.72;100.00
61757;BME280;57225;61.460;24.060;2023-03-02T02:43:31;99925.03;;;0.72;100.00
61757;BME280;57225;61.460;24.060;2023-03-02T02:46:15;99930.41;;;0.69;100.00
61757;BME280;57225;61.460;24.060;2023-03-02T02:49:01;99928.91;;;0.71;100.00
61757;BME280;57225;61.460;24.060;2023-03-02T02:51:46;99923.75;;;0.70;100.00
61757;BME280;57225;61.460;24.060;2023-03-02T02:54:32;99923.31;;;0.68;100.00
61757;BME280;57225;61.460;24.060;2023-03-02T02:57:18;99914.06;;;0.60;100.00
61757;BME280;57225;61.460;24.060;2023-03-02T03:00:04;99908.81;;;0.55;100.00
61757;BME280;57225;61.460;24.060;2023-03-02T03:03:07;99904.34;;;0.63;100.00
61757;BME280;57225;61.460;24.060;2023-03-02T03:06:16;99901.56;;;0.51;100.00
61757;BME280;57225;61.460;24.060;2023-03-02T03:09:01;99901.81;;;0.58;100.00
61757;BME280;57225;61.460;24.060;2023-03-02T03:11:55;99898.06;;;0.62;100.00
61757;BME280;57225;61.460;24.060;2023-03-02T03:14:40;99906.88;;;0.56;100.00
61757;BME280;57225;61.460;24.060;2023-03-02T03:17:25;99911.22;;;0.57;100.00
61757;BME280;57225;61.460;24.060;2023-03-02T03:20:09;99902.28;;;0.60;100.00
61757;BME280;57225;61.460;24.060;2023-03-02T03:22:59;99892.34;;;0.55;100.00
61757;BME280;57225;61.460;24.060;2023-03-02T03:25:44;99885.72;;;0.56;100.00
61757;BME280;57225;61.460;24.060;2023-03-02T03:28:28;99883.44;;;0.58;100.00
61757;BME280;57225;61.460;24.060;2023-03-02T03:31:12;99878.88;;;0.62;100.00
61757;BME280;57225;61.460;24.060;2023-03-02T03:33:57;99874.88;;;0.72;100.00
61757;BME280;57225;61.460;24.060;2023-03-02T03:36:43;99867.91;;;0.74;100.00
61757;BME280;57225;61.460;24.060;2023-03-02T03:39:29;99878.16;;;0.77;100.00
61757;BME280;57225;61.460;24.060;2023-03-02T03:42:14;99857.03;;;0.78;100.00
61757;BME280;57225;61.460;24.060;2023-03-02T03:44:58;99862.75;;;0.85;100.00
61757;BME280;57225;61.460;24.060;2023-03-02T03:47:42;99856.69;;;0.92;99.51
61757;BME280;57225;61.460;24.060;2023-03-02T03:50:27;99846.63;;;0.84;100.00
61757;BME280;57225;61.460;24.060;2023-03-02T03:53:11;99849.13;;;0.89;100.00
61757;BME280;57225;61.460;24.060;2023-03-02T03:55:56;99841.69;;;0.89;99.60
61757;BME280;57225;61.460;24.060;2023-03-02T03:58:40;99837.81;;;0.90;99.10
61757;BME280;57225;61.460;24.060;2023-03-02T04:01:25;99829.84;;;0.73;100.00
61757;BME280;57225;61.460;24.060;2023-03-02T04:04:23;99830.97;;;0.72;100.00
61757;BME280;57225;61.460;24.060;2023-03-02T04:07:08;99828.97;;;0.57;100.00
61757;BME280;57225;61.460;24.060;2023-03-02T04:09:52;99827.69;;;0.54;100.00
61757;BME280;57225;61.460;24.060;2023-03-02T04:12:46;99820.94;;;0.52;100.00
61757;BME280;57225;61.460;24.060;2023-03-02T04:15:31;99825.75;;;0.55;100.00
61757;BME280;57225;61.460;24.060;2023-03-02T04:18:15;99825.50;;;0.48;100.00
61757;BME280;57225;61.460;24.060;2023-03-02T04:20:59;99820.94;;;0.52;100.00
61757;BME280;57225;61.460;24.060;2023-03-02T04:23:44;99796.97;;;0.49;100.00
61757;BME280;57225;61.460;24.060;2023-03-02T04:26:28;99795.81;;;0.50;100.00
61757;BME280;57225;61.460;24.060;2023-03-02T04:29:13;99792.84;;;0.55;100.00
61757;BME280;57225;61.460;24.060;2023-03-02T04:31:58;99785.28;;;0.52;100.00
61757;BME280;57225;61.460;24.060;2023-03-02T04:34:42;99783.69;;;0.51;100.00
61757;BME280;57225;61.460;24.060;2023-03-02T04:37:27;99791.16;;;0.50;100.00
61757;BME280;57225;61.460;24.060;2023-03-02T04:40:12;99762.38;;;0.44;100.00
61757;BME280;57225;61.460;24.060;2023-03-02T04:42:56;99762.94;;;0.37;100.00
61757;BME280;57225;61.460;24.060;2023-03-02T04:45:40;99745.56;;;0.46;99.28
61757;BME280;57225;61.460;24.060;2023-03-02T04:48:25;99759.72;;;0.48;98.84
61757;BME280;57225;61.460;24.060;2023-03-02T04:51:27;99754.91;;;0.45;99.35
61757;BME280;57225;61.460;24.060;2023-03-02T04:54:18;99758.34;;;0.42;99.02
61757;BME280;57225;61.460;24.060;2023-03-02T04:57:02;99745.56;;;0.46;97.84
61757;BME280;57225;61.460;24.060;2023-03-02T04:59:47;99739.81;;;0.51;97.11
61757;BME280;57225;61.460;24.060;2023-03-02T05:02:31;99723.63;;;0.46;97.47
61757;BME280;57225;61.460;24.060;2023-03-02T05:05:19;99730.03;;;0.50;96.55
61757;BME280;57225;61.460;24.060;2023-03-02T05:08:04;99732.22;;;0.44;97.21
61757;BME280;57225;61.460;24.060;2023-03-02T05:10:48;99719.84;;;0.38;96.60
61757;BME280;57225;61.460;24.060;2023-03-02T05:13:33;99719.75;;;0.47;95.76
61757;BME280;57225;61.460;24.060;2023-03-02T05:16:18;99726.34;;;0.58;95.55
61757;BME280;57225;61.460;24.060;2023-03-02T05:19:08;99698.50;;;0.44;95.93
61757;BME280;57225;61.460;24.060;2023-03-02T05:21:53;99709.69;;;0.38;96.89
61757;BME280;57225;61.460;24.060;2023-03-02T05:24:37;99700.56;;;0.34;96.77
61757;BME280;57225;61.460;24.060;2023-03-02T05:27:21;99689.16;;;0.32;95.69
61757;BME280;57225;61.460;24.060;2023-03-02T05:30:07;99702.97;;;0.36;96.27
61757;BME280;57225;61.460;24.060;2023-03-02T05:32:52;99701.72;;;0.33;96.96
61757;BME280;57225;61.460;24.060;2023-03-02T05:35:36;99701.72;;;0.21;97.91
61757;BME280;57225;61.460;24.060;2023-03-02T05:38:21;99695.44;;;0.21;98.11
61757;BME280;57225;61.460;24.060;2023-03-02T05:41:05;99700.84;;;0.17;97.84
61757;BME280;57225;61.460;24.060;2023-03-02T05:43:50;99698.97;;;0.33;95.78
61757;BME280;57225;61.460;24.060;2023-03-02T05:46:34;99691.09;;;0.32;96.93
61757;BME280;57225;61.460;24.060;2023-03-02T05:49:19;99688.00;;;0.33;95.14
61757;BME280;57225;61.460;24.060;2023-03-02T05:52:04;99679.34;;;0.44;94.08
61757;BME280;57225;61.460;24.060;2023-03-02T05:54:48;99665.13;;;0.54;91.03
61757;BME280;57225;61.460;24.060;2023-03-02T05:57:32;99663.81;;;0.63;90.26
61757;BME280;57225;61.460;24.060;2023-03-02T06:00:18;99675.13;;;0.74;89.98
61757;BME280;57225;61.460;24.060;2023-03-02T06:03:03;99662.97;;;0.87;88.74
61757;BME280;57225;61.460;24.060;2023-03-02T06:05:47;99681.75;;;1.01;86.97
61757;BME280;57225;61.460;24.060;2023-03-02T06:08:35;99672.63;;;0.97;87.90
61757;BME280;57225;61.460;24.060;2023-03-02T06:11:24;99667.88;;;1.09;85.78
61757;BME280;57225;61.460;24.060;2023-03-02T06:14:08;99676.31;;;1.16;86.15
61757;BME280;57225;61.460;24.060;2023-03-02T06:16:53;99679.69;;;1.26;84.39
61757;BME280;57225;61.460;24.060;2023-03-02T06:19:37;99674.63;;;1.28;85.11
61757;BME280;57225;61.460;24.060;2023-03-02T06:22:23;99676.50;;;1.39;83.25
61757;BME280;57225;61.460;24.060;2023-03-02T06:25:10;99669.25;;;1.47;82.50
61757;BME280;57225;61.460;24.060;2023-03-02T06:27:55;99676.25;;;1.44;83.39
61757;BME280;57225;61.460;24.060;2023-03-02T06:30:39;99680.69;;;1.49;82.46
61757;BME280;57225;61.460;24.060;2023-03-02T06:33:24;99677.94;;;1.49;83.14
61757;BME280;57225;61.460;24.060;2023-03-02T06:36:09;99670.06;;;1.47;83.25
61757;BME280;57225;61.460;24.060;2023-03-02T06:56:10;99646.16;;;1.64;82.57
61757;BME280;57225;61.460;24.060;2023-03-02T06:58:55;99643.75;;;1.62;82.42
61757;BME280;57225;61.460;24.060;2023-03-02T07:01:39;99642.06;;;1.73;81.68
61757;BME280;57225;61.460;24.060;2023-03-02T07:04:24;99641.78;;;1.78;81.46
61757;BME280;57225;61.460;24.060;2023-03-02T07:07:08;99640.19;;;1.77;81.22
61757;BME280;57225;61.460;24.060;2023-03-02T07:09:52;99639.13;;;1.82;81.85
61757;BME280;57225;61.460;24.060;2023-03-02T07:12:37;99638.84;;;1.87;81.28
61757;BME280;57225;61.460;24.060;2023-03-02T07:15:22;99631.41;;;1.87;81.02
61757;BME280;57225;61.460;24.060;2023-03-02T07:18:06;99630.78;;;1.78;81.61
61757;BME280;57225;61.460;24.060;2023-03-02T07:20:51;99616.53;;;1.73;82.13
61757;BME280;57225;61.460;24.060;2023-03-02T07:23:35;99625.13;;;1.71;81.84
61757;BME280;57225;61.460;24.060;2023-03-02T07:26:20;99612.00;;;1.80;81.79
61757;BME280;57225;61.460;24.060;2023-03-02T07:29:04;99614.47;;;1.85;81.64
61757;BME280;57225;61.460;24.060;2023-03-02T07:31:49;99609.03;;;2.05;80.21
61757;BME280;57225;61.460;24.060;2023-03-02T07:34:39;99608.28;;;2.23;79.07
61757;BME280;57225;61.460;24.060;2023-03-02T07:37:24;99597.53;;;2.34;79.15
61757;BME280;57225;61.460;24.060;2023-03-02T07:40:10;99606.03;;;2.48;78.56
61757;BME280;57225;61.460;24.060;2023-03-02T07:42:54;99604.44;;;2.66;77.62
61757;BME280;57225;61.460;24.060;2023-03-02T07:45:39;99583.31;;;2.70;77.60
61757;BME280;57225;61.460;24.060;2023-03-02T07:48:23;99578.38;;;2.79;77.70
61757;BME280;57225;61.460;24.060;2023-03-02T07:51:08;99558.31;;;2.79;77.32
61757;BME280;57225;61.460;24.060;2023-03-02T07:53:52;99564.06;;;2.70;77.55
61757;BME280;57225;61.460;24.060;2023-03-02T07:56:37;99574.97;;;2.86;77.31
61757;BME280;57225;61.460;24.060;2023-03-02T07:59:21;99569.94;;;2.92;76.45
61757;BME280;57225;61.460;24.060;2023-03-02T08:02:06;99556.31;;;2.99;76.15
61757;BME280;57225;61.460;24.060;2023-03-02T08:04:50;99554.81;;;3.01;76.65
61757;BME280;57225;61.460;24.060;2023-03-02T08:07:35;99554.13;;;3.08;77.19
61757;BME280;57225;61.460;24.060;2023-03-02T08:10:20;99542.50;;;3.18;75.96
61757;BME280;57225;61.460;24.060;2023-03-02T08:13:04;99536.34;;;3.02;76.14
61757;BME280;57225;61.460;24.060;2023-03-02T08:15:49;99543.47;;;3.29;75.70
61757;BME280;57225;61.460;24.060;2023-03-02T08:18:34;99543.78;;;3.24;75.61
61757;BME280;57225;61.460;24.060;2023-03-02T08:21:21;99517.75;;;3.44;75.01
61757;BME280;57225;61.460;24.060;2023-03-02T08:24:06;99513.78;;;3.68;74.11
61757;BME280;57225;61.460;24.060;2023-03-02T08:26:51;99506.06;;;3.51;73.48
61757;BME280;57225;61.460;24.060;2023-03-02T08:29:35;99514.31;;;3.77;73.04
61757;BME280;57225;61.460;24.060;2023-03-02T08:32:20;99496.78;;;3.62;72.62
61757;BME280;57225;61.460;24.060;2023-03-02T08:35:05;99473.25;;;3.69;74.29
61757;BME280;57225;61.460;24.060;2023-03-02T08:37:50;99486.78;;;3.81;73.58
61757;BME280;57225;61.460;24.060;2023-03-02T08:40:34;99474.94;;;3.77;72.52
61757;BME280;57225;61.460;24.060;2023-03-02T08:43:20;99483.00;;;3.92;72.69
61757;BME280;57225;61.460;24.060;2023-03-02T08:46:04;99467.13;;;3.82;72.32
61757;BME280;57225;61.460;24.060;2023-03-02T08:48:49;99475.03;;;3.84;73.86
61757;BME280;57225;61.460;24.060;2023-03-02T08:51:36;99470.88;;;3.97;72.93
61757;BME280;57225;61.460;24.060;2023-03-02T08:54:21;99464.34;;;4.12;72.08
61757;BME280;57225;61.460;24.060;2023-03-02T08:57:09;99456.69;;;4.32;70.14
61757;BME280;57225;61.460;24.060;2023-03-02T08:59:54;99454.34;;;3.97;71.28
61757;BME280;57225;61.460;24.060;2023-03-02T09:02:39;99449.91;;;3.92;71.41
61757;BME280;57225;61.460;24.060;2023-03-02T09:05:24;99430.41;;;3.75;71.27
61757;BME280;57225;61.460;24.060;2023-03-02T09:08:08;99449.69;;;3.75;72.19
61757;BME280;57225;61.460;24.060;2023-03-02T09:10:53;99429.06;;;3.91;72.75
61757;BME280;57225;61.460;24.060;2023-03-02T09:13:38;99428.81;;;3.74;73.47
61757;BME280;57225;61.460;24.060;2023-03-02T09:16:22;99430.75;;;3.70;72.56
61757;BME280;57225;61.460;24.060;2023-03-02T09:19:10;99420.31;;;3.86;72.01
61757;BME280;57225;61.460;24.060;2023-03-02T09:21:55;99427.34;;;4.13;72.25
61757;BME280;57225;61.460;24.060;2023-03-02T09:24:40;99401.00;;;4.19;71.50
61757;BME280;57225;61.460;24.060;2023-03-02T09:27:24;99422.06;;;4.01;71.43
61757;BME280;57225;61.460;24.060;2023-03-02T09:30:09;99424.09;;;4.04;71.13
61757;BME280;57225;61.460;24.060;2023-03-02T09:32:53;99408.38;;;4.08;71.11
61757;BME280;57225;61.460;24.060;2023-03-02T09:35:38;99405.50;;;3.97;70.96
61757;BME280;57225;61.460;24.060;2023-03-02T09:38:22;99400.03;;;4.01;71.17
61757;BME280;57225;61.460;24.060;2023-03-02T09:47:20;99391.31;;;3.99;70.60
61757;BME280;57225;61.460;24.060;2023-03-02T09:50:25;99396.78;;;4.29;70.24
61757;BME280;57225;61.460;24.060;2023-03-02T09:53:46;99399.22;;;4.37;69.76
61757;BME280;57225;61.460;24.060;2023-03-02T09:56:42;99392.72;;;4.19;69.71
61757;BME280;57225;61.460;24.060;2023-03-02T09:59:44;99376.44;;;4.44;68.83
61757;BME280;57225;61.460;24.060;2023-03-02T10:02:35;99378.38;;;4.43;68.07
61757;BME280;57225;61.460;24.060;2023-03-02T10:05:24;99362.13;;;4.31;69.77
61757;BME280;57225;61.460;24.060;2023-03-02T10:08:18;99364.66;;;4.51;68.07
61757;BME280;57225;61.460;24.060;2023-03-02T10:11:07;99366.03;;;4.30;68.08
61757;BME280;57225;61.460;24.060;2023-03-02T10:14:03;99344.75;;;4.27;69.15
61757;BME280;57225;61.460;24.060;2023-03-02T10:26:37;99333.34;;;4.29;68.79
61757;BME280;57225;61.460;24.060;2023-03-02T10:29:53;99335.91;;;4.08;67.72
61757;BME280;57225;61.460;24.060;2023-03-02T10:32:48;99330.16;;;4.23;67.88
61757;BME280;57225;61.460;24.060;2023-03-02T10:35:36;99328.00;;;4.06;69.30
61757;BME280;57225;61.460;24.060;2023-03-02T10:38:22;99327.09;;;3.95;69.02
61757;BME280;57225;61.460;24.060;2023-03-02T10:41:15;99323.09;;;3.89;68.49
61757;BME280;57225;61.460;24.060;2023-03-02T10:47:27;99305.03;;;3.95;69.09
61757;BME280;57225;61.460;24.060;2023-03-02T10:50:22;99312.22;;;4.03;67.70
61757;BME280;57225;61.460;24.060;2023-03-02T10:53:17;99302.28;;;3.95;67.58
61757;BME280;57225;61.460;24.060;2023-03-02T10:56:04;99299.75;;;4.16;68.27
61757;BME280;57225;61.460;24.060;2023-03-02T10:58:48;99290.97;;;4.03;67.36
61757;BME280;57225;61.460;24.060;2023-03-02T11:01:33;99278.72;;;4.01;67.42
61757;BME280;57225;61.460;24.060;2023-03-02T11:04:22;99290.31;;;4.17;67.51
61757;BME280;57225;61.460;24.060;2023-03-02T11:07:08;99276.78;;;4.05;66.47
61757;BME280;57225;61.460;24.060;2023-03-02T11:10:06;99270.88;;;4.03;67.57
61757;BME280;57225;61.460;24.060;2023-03-02T11:13:02;99267.19;;;3.88;67.19
61757;BME280;57225;61.460;24.060;2023-03-02T11:15:47;99257.03;;;3.96;65.90
61757;BME280;57225;61.460;24.060;2023-03-02T11:18:49;99258.19;;;3.98;67.72
61757;BME280;57225;61.460;24.060;2023-03-02T11:21:51;99244.41;;;3.95;65.50
61757;BME280;57225;61.460;24.060;2023-03-02T11:24:48;99234.63;;;4.01;64.58
61757;BME280;57225;61.460;24.060;2023-03-02T11:27:38;99239.41;;;4.11;65.45
61757;BME280;57225;61.460;24.060;2023-03-02T11:30:24;99235.03;;;4.03;64.55
61757;BME280;57225;61.460;24.060;2023-03-02T11:33:33;99220.22;;;4.25;65.35
61757;BME280;57225;61.460;24.060;2023-03-02T11:36:29;99208.56;;;4.46;65.55
61757;BME280;57225;61.460;24.060;2023-03-02T11:39:25;99196.31;;;4.43;64.64
61757;BME280;57225;61.460;24.060;2023-03-02T11:42:20;99205.00;;;4.49;64.32
61757;BME280;57225;61.460;24.060;2023-03-02T11:48:04;99196.66;;;4.35;66.59
61757;BME280;57225;61.460;24.060;2023-03-02T11:53:45;99184.06;;;4.37;65.29
61757;BME280;57225;61.460;24.060;2023-03-02T11:56:34;99181.56;;;4.18;65.63
61757;BME280;57225;61.460;24.060;2023-03-02T11:59:20;99183.63;;;4.28;66.09
61757;BME280;57225;61.460;24.060;2023-03-02T12:02:10;99168.94;;;4.10;65.73
61757;BME280;57225;61.460;24.060;2023-03-02T12:14:03;99160.06;;;4.41;64.51
61757;BME280;57225;61.460;24.060;2023-03-02T12:16:47;99143.00;;;4.25;64.26
61757;BME280;57225;61.460;24.060;2023-03-02T12:19:40;99132.44;;;4.34;64.83
61757;BME280;57225;61.460;24.060;2023-03-02T12:22:30;99138.50;;;4.65;64.84
61757;BME280;57225;61.460;24.060;2023-03-02T12:28:02;99136.25;;;4.95;62.29
61757;BME280;57225;61.460;24.060;2023-03-02T12:30:55;99123.50;;;4.59;64.10
61757;BME280;57225;61.460;24.060;2023-03-02T12:33:45;99125.16;;;4.81;64.00
61757;BME280;57225;61.460;24.060;2023-03-02T12:36:39;99123.56;;;4.73;62.54
61757;BME280;57225;61.460;24.060;2023-03-02T12:54:35;99110.06;;;4.57;62.60
61757;BME280;57225;61.460;24.060;2023-03-02T12:57:20;99121.44;;;4.41;62.69
61757;BME280;57225;61.460;24.060;2023-03-02T13:00:12;99116.28;;;4.36;63.52
61757;BME280;57225;61.460;24.060;2023-03-02T13:02:59;99118.03;;;4.76;62.71
61757;BME280;57225;61.460;24.060;2023-03-02T13:05:50;99099.06;;;4.61;61.72
61757;BME280;57225;61.460;24.060;2023-03-02T13:08:34;99114.44;;;4.58;62.48
61757;BME280;57225;61.460;24.060;2023-03-02T13:11:29;99103.13;;;4.95;63.03
61757;BME280;57225;61.460;24.060;2023-03-02T13:14:21;99099.63;;;5.05;62.67
61757;BME280;57225;61.460;24.060;2023-03-02T13:17:22;99103.44;;;4.72;61.89
61757;BME280;57225;61.460;24.060;2023-03-02T13:20:09;99092.44;;;4.83;62.60
61757;BME280;57225;61.460;24.060;2023-03-02T13:22:56;99090.75;;;4.54;63.18
61757;BME280;57225;61.460;24.060;2023-03-02T13:26:07;99086.00;;;4.51;64.65
61757;BME280;57225;61.460;24.060;2023-03-02T13:29:17;99089.84;;;4.28;65.76
61757;BME280;57225;61.460;24.060;2023-03-02T13:35:32;99075.59;;;4.16;67.41
61757;BME280;57225;61.460;24.060;2023-03-02T13:38:20;99076.78;;;4.18;68.44
61757;BME280;57225;61.460;24.060;2023-03-02T13:41:06;99067.28;;;4.09;67.66
61757;BME280;57225;61.460;24.060;2023-03-02T13:43:50;99064.19;;;4.21;67.37
61757;BME280;57225;61.460;24.060;2023-03-02T13:46:35;99051.97;;;4.15;67.06
61757;BME280;57225;61.460;24.060;2023-03-02T13:49:33;99074.06;;;4.22;69.26
61757;BME280;57225;61.460;24.060;2023-03-02T13:52:26;99061.94;;;4.40;67.78
61757;BME280;57225;61.460;24.060;2023-03-02T13:55:14;99054.84;;;4.39;65.89
61757;BME280;57225;61.460;24.060;2023-03-02T13:57:59;99049.38;;;4.54;66.40
61757;BME280;57225;61.460;24.060;2023-03-02T14:00:44;99039.84;;;4.33;67.20
61757;BME280;57225;61.460;24.060;2023-03-02T14:03:29;99042.09;;;4.14;66.74
61757;BME280;57225;61.460;24.060;2023-03-02T14:06:14;99022.84;;;4.17;67.87
61757;BME280;57225;61.460;24.060;2023-03-02T14:09:01;99024.78;;;4.13;67.58
61757;BME280;57225;61.460;24.060;2023-03-02T14:11:52;99032.63;;;4.08;68.27
61757;BME280;57225;61.460;24.060;2023-03-02T14:14:38;99015.97;;;3.86;70.13
61757;BME280;57225;61.460;24.060;2023-03-02T14:17:24;99020.78;;;4.03;69.90
61757;BME280;57225;61.460;24.060;2023-03-02T14:20:11;99013.94;;;3.76;71.49
61757;BME280;57225;61.460;24.060;2023-03-02T14:22:55;99003.75;;;3.84;70.13
61757;BME280;57225;61.460;24.060;2023-03-02T14:25:40;99000.25;;;3.90;71.42
61757;BME280;57225;61.460;24.060;2023-03-02T14:28:30;98990.72;;;3.81;70.86
61757;BME280;57225;61.460;24.060;2023-03-02T14:31:16;98981.28;;;3.82;71.65
61757;BME280;57225;61.460;24.060;2023-03-02T14:34:02;98976.19;;;3.84;72.22
61757;BME280;57225;61.460;24.060;2023-03-02T14:36:48;98980.56;;;3.92;71.50
61757;BME280;57225;61.460;24.060;2023-03-02T14:39:40;98975.06;;;3.99;71.41
61757;BME280;57225;61.460;24.060;2023-03-02T14:42:25;98980.88;;;3.73;72.58
61757;BME280;57225;61.460;24.060;2023-03-02T14:45:10;98974.19;;;3.81;72.63
61757;BME280;57225;61.460;24.060;2023-03-02T14:47:54;98971.47;;;3.88;73.28
61757;BME280;57225;61.460;24.060;2023-03-02T14:50:41;98968.66;;;3.74;73.73
61757;BME280;57225;61.460;24.060;2023-03-02T14:53:28;98970.19;;;3.64;74.55
61757;BME280;57225;61.460;24.060;2023-03-02T14:56:18;98956.41;;;3.68;76.13
61757;BME280;57225;61.460;24.060;2023-03-02T14:59:03;98967.75;;;3.55;77.42
61757;BME280;57225;61.460;24.060;2023-03-02T15:01:47;98966.09;;;3.40;78.60
61757;BME280;57225;61.460;24.060;2023-03-02T15:04:32;98966.06;;;3.37;79.54
61757;BME280;57225;61.460;24.060;2023-03-02T15:07:19;98977.09;;;3.37;80.68
61757;BME280;57225;61.460;24.060;2023-03-02T15:10:04;98990.41;;;3.31;82.55
61757;BME280;57225;61.460;24.060;2023-03-02T15:12:49;98983.47;;;2.97;84.97
61757;BME280;57225;61.460;24.060;2023-03-02T15:15:33;98974.34;;;2.89;85.39
61757;BME280;57225;61.460;24.060;2023-03-02T15:18:18;98996.53;;;2.66;88.54
61757;BME280;57225;61.460;24.060;2023-03-02T15:21:03;98978.94;;;2.34;89.01
61757;BME280;57225;61.460;24.060;2023-03-02T15:23:48;98985.19;;;2.01;89.95
61757;BME280;57225;61.460;24.060;2023-03-02T15:26:32;98969.22;;;1.80;92.72
61757;BME280;57225;61.460;24.060;2023-03-02T15:29:18;98979.28;;;1.69;95.82
61757;BME280;57225;61.460;24.060;2023-03-02T15:32:03;98975.47;;;1.77;97.00
61757;BME280;57225;61.460;24.060;2023-03-02T15:34:47;98978.97;;;1.74;98.51
61757;BME280;57225;61.460;24.060;2023-03-02T15:37:31;98989.59;;;1.76;99.00
61757;BME280;57225;61.460;24.060;2023-03-02T15:40:16;98978.75;;;1.60;100.00
61757;BME280;57225;61.460;24.060;2023-03-02T15:43:01;98975.13;;;1.52;100.00
61757;BME280;57225;61.460;24.060;2023-03-02T15:45:45;98977.50;;;1.54;100.00
61757;BME280;57225;61.460;24.060;2023-03-02T15:48:29;98974.72;;;1.50;100.00
61757;BME280;57225;61.460;24.060;2023-03-02T15:51:14;98978.44;;;1.65;100.00
61757;BME280;57225;61.460;24.060;2023-03-02T15:53:58;98961.94;;;1.61;99.55
61757;BME280;57225;61.460;24.060;2023-03-02T15:56:43;98974.13;;;1.64;98.78
61757;BME280;57225;61.460;24.060;2023-03-02T15:59:35;98973.03;;;1.72;97.63
61757;BME280;57225;61.460;24.060;2023-03-02T16:02:19;98966.34;;;1.70;97.69
61757;BME280;57225;61.460;24.060;2023-03-02T16:05:04;98970.72;;;1.74;95.50